sensor_id;sensor_type;location;lat;lon;timestamp;P1;durP1;ratioP1;P2;durP2;ratioP2
68803;SDS011;55787;52.678;13.314;2024-03-07T00:00:16;65.27;;;17.57;;
68803;SDS011;55787;52.678;13.314;2024-03-07T00:02:48;63.20;;;17.95;;
68803;SDS011;55787;52.678;13.314;2024-03-07T00:05:16;68.28;;;18.25;;
68803;SDS011;55787;52.678;13.314;2024-03-07T00:07:45;75.60;;;18.15;;
68803;SDS011;55787;52.678;13.314;2024-03-07T00:10:13;63.75;;;17.15;;
68803;SDS011;55787;52.678;13.314;2024-03-07T00:12:42;64.82;;;18.10;;
68803;SDS011;55787;52.678;13.314;2024-03-07T00:15:10;68.40;;;17.50;;
68803;SDS011;55787;52.678;13.314;2024-03-07T00:17:39;68.13;;;18.55;;
68803;SDS011;55787;52.678;13.314;2024-03-07T00:20:07;72.05;;;18.60;;
68803;SDS011;55787;52.678;13.314;2024-03-07T00:22:42;63.33;;;18.63;;
68803;SDS011;55787;52.678;13.314;2024-03-07T00:25:08;73.80;;;19.30;;
68803;SDS011;55787;52.678;13.314;2024-03-07T00:27:36;65.82;;;18.58;;
68803;SDS011;55787;52.678;13.314;2024-03-07T00:30:02;71.60;;;18.33;;
68803;SDS011;55787;52.678;13.314;2024-03-07T00:32:31;69.88;;;18.33;;
68803;SDS011;55787;52.678;13.314;2024-03-07T00:35:02;70.28;;;18.98;;
68803;SDS011;55787;52.678;13.314;2024-03-07T00:37:29;66.00;;;18.57;;
68803;SDS011;55787;52.678;13.314;2024-03-07T00:39:57;70.03;;;19.15;;
68803;SDS011;55787;52.678;13.314;2024-03-07T00:42:24;61.53;;;17.75;;
68803;SDS011;55787;52.678;13.314;2024-03-07T00:44:50;67.50;;;18.48;;
68803;SDS011;55787;52.678;13.314;2024-03-07T00:47:17;66.85;;;18.40;;
68803;SDS011;55787;52.678;13.314;2024-03-07T00:49:44;69.07;;;18.57;;
68803;SDS011;55787;52.678;13.314;2024-03-07T00:52:14;63.42;;;19.15;;
68803;SDS011;55787;52.678;13.314;2024-03-07T00:54:42;65.07;;;18.08;;
68803;SDS011;55787;52.678;13.314;2024-03-07T00:57:08;68.05;;;18.92;;
68803;SDS011;55787;52.678;13.314;2024-03-07T00:59:35;67.95;;;18.30;;
68803;SDS011;55787;52.678;13.314;2024-03-07T01:02:02;74.00;;;18.37;;
68803;SDS011;55787;52.678;13.314;2024-03-07T01:04:29;74.60;;;19.92;;
68803;SDS011;55787;52.678;13.314;2024-03-07T01:07:00;66.75;;;19.67;;
68803;SDS011;55787;52.678;13.314;2024-03-07T01:09:27;84.90;;;18.77;;
68803;SDS011;55787;52.678;13.314;2024-03-07T01:11:57;68.03;;;19.35;;
68803;SDS011;55787;52.678;13.314;2024-03-07T01:14:26;75.80;;;21.17;;
68803;SDS011;55787;52.678;13.314;2024-03-07T01:16:53;74.45;;;19.75;;
68803;SDS011;55787;52.678;13.314;2024-03-07T01:19:20;73.90;;;20.45;;
68803;SDS011;55787;52.678;13.314;2024-03-07T01:21:46;75.72;;;19.73;;
68803;SDS011;55787;52.678;13.314;2024-03-07T01:24:14;77.63;;;21.65;;
68803;SDS011;55787;52.678;13.314;2024-03-07T01:26:44;81.13;;;20.93;;
68803;SDS011;55787;52.678;13.314;2024-03-07T01:29:11;79.15;;;20.15;;
68803;SDS011;55787;52.678;13.314;2024-03-07T01:31:38;84.22;;;22.00;;
68803;SDS011;55787;52.678;13.314;2024-03-07T01:34:04;81.80;;;20.85;;
68803;SDS011;55787;52.678;13.314;2024-03-07T01:36:31;83.70;;;21.45;;
68803;SDS011;55787;52.678;13.314;2024-03-07T01:38:58;71.60;;;20.23;;
68803;SDS011;55787;52.678;13.314;2024-03-07T01:41:24;72.22;;;20.02;;
68803;SDS011;55787;52.678;13.314;2024-03-07T01:43:51;72.90;;;19.90;;
68803;SDS011;55787;52.678;13.314;2024-03-07T01:46:18;72.40;;;20.73;;
68803;SDS011;55787;52.678;13.314;2024-03-07T01:48:45;69.20;;;20.70;;
68803;SDS011;55787;52.678;13.314;2024-03-07T01:51:14;70.00;;;20.00;;
68803;SDS011;55787;52.678;13.314;2024-03-07T01:53:42;72.22;;;20.60;;
68803;SDS011;55787;52.678;13.314;2024-03-07T01:56:09;78.80;;;21.15;;
68803;SDS011;55787;52.678;13.314;2024-03-07T01:58:37;78.97;;;21.73;;
68803;SDS011;55787;52.678;13.314;2024-03-07T02:01:03;79.15;;;20.90;;
68803;SDS011;55787;52.678;13.314;2024-03-07T02:03:31;77.20;;;21.13;;
68803;SDS011;55787;52.678;13.314;2024-03-07T02:05:58;76.05;;;20.73;;
68803;SDS011;55787;52.678;13.314;2024-03-07T02:08:25;75.63;;;20.48;;
68803;SDS011;55787;52.678;13.314;2024-03-07T02:10:52;76.47;;;21.48;;
68803;SDS011;55787;52.678;13.314;2024-03-07T02:13:19;75.82;;;21.30;;
68803;SDS011;55787;52.678;13.314;2024-03-07T02:15:45;79.50;;;19.90;;
68803;SDS011;55787;52.678;13.314;2024-03-07T02:18:12;79.30;;;20.63;;
68803;SDS011;55787;52.678;13.314;2024-03-07T02:20:44;85.68;;;22.10;;
68803;SDS011;55787;52.678;13.314;2024-03-07T02:23:12;70.97;;;20.10;;
68803;SDS011;55787;52.678;13.314;2024-03-07T02:25:39;82.43;;;22.30;;
68803;SDS011;55787;52.678;13.314;2024-03-07T02:28:05;87.13;;;22.67;;
68803;SDS011;55787;52.678;13.314;2024-03-07T02:30:32;84.35;;;21.70;;
68803;SDS011;55787;52.678;13.314;2024-03-07T02:32:59;78.65;;;22.17;;
68803;SDS011;55787;52.678;13.314;2024-03-07T02:35:33;84.70;;;22.15;;
68803;SDS011;55787;52.678;13.314;2024-03-07T02:38:02;88.10;;;22.40;;
68803;SDS011;55787;52.678;13.314;2024-03-07T02:40:29;82.07;;;22.50;;
68803;SDS011;55787;52.678;13.314;2024-03-07T02:42:56;81.05;;;22.73;;
68803;SDS011;55787;52.678;13.314;2024-03-07T02:45:23;77.30;;;22.60;;
68803;SDS011;55787;52.678;13.314;2024-03-07T02:47:50;75.20;;;22.25;;
68803;SDS011;55787;52.678;13.314;2024-03-07T02:50:16;76.20;;;21.60;;
68803;SDS011;55787;52.678;13.314;2024-03-07T02:52:43;76.83;;;22.07;;
68803;SDS011;55787;52.678;13.314;2024-03-07T02:55:10;76.75;;;22.80;;
68803;SDS011;55787;52.678;13.314;2024-03-07T02:57:36;78.35;;;22.95;;
68803;SDS011;55787;52.678;13.314;2024-03-07T03:00:04;74.80;;;21.90;;
68803;SDS011;55787;52.678;13.314;2024-03-07T03:02:39;81.38;;;22.42;;
68803;SDS011;55787;52.678;13.314;2024-03-07T03:05:06;72.93;;;22.37;;
68803;SDS011;55787;52.678;13.314;2024-03-07T03:07:36;78.70;;;21.58;;
68803;SDS011;55787;52.678;13.314;2024-03-07T03:10:03;71.80;;;20.90;;
68803;SDS011;55787;52.678;13.314;2024-03-07T03:12:33;73.25;;;21.90;;
68803;SDS011;55787;52.678;13.314;2024-03-07T03:15:00;74.88;;;22.67;;
68803;SDS011;55787;52.678;13.314;2024-03-07T03:17:27;69.20;;;21.07;;
68803;SDS011;55787;52.678;13.314;2024-03-07T03:19:54;68.13;;;20.70;;
68803;SDS011;55787;52.678;13.314;2024-03-07T03:22:21;70.20;;;20.33;;
68803;SDS011;55787;52.678;13.314;2024-03-07T03:24:48;65.22;;;20.85;;
68803;SDS011;55787;52.678;13.314;2024-03-07T03:27:14;75.13;;;21.67;;
68803;SDS011;55787;52.678;13.314;2024-03-07T03:29:41;64.80;;;20.73;;
68803;SDS011;55787;52.678;13.314;2024-03-07T03:32:07;72.18;;;21.00;;
68803;SDS011;55787;52.678;13.314;2024-03-07T03:34:34;74.55;;;21.23;;
68803;SDS011;55787;52.678;13.314;2024-03-07T03:37:01;63.35;;;20.15;;
68803;SDS011;55787;52.678;13.314;2024-03-07T03:39:27;67.45;;;20.35;;
68803;SDS011;55787;52.678;13.314;2024-03-07T03:41:54;73.27;;;21.90;;
68803;SDS011;55787;52.678;13.314;2024-03-07T03:44:20;66.82;;;20.58;;
68803;SDS011;55787;52.678;13.314;2024-03-07T03:46:47;68.95;;;20.48;;
68803;SDS011;55787;52.678;13.314;2024-03-07T03:49:15;67.10;;;19.30;;
68803;SDS011;55787;52.678;13.314;2024-03-07T03:51:42;64.70;;;20.35;;
68803;SDS011;55787;52.678;13.314;2024-03-07T03:54:09;71.17;;;20.47;;
68803;SDS011;55787;52.678;13.314;2024-03-07T03:56:36;66.00;;;19.55;;
68803;SDS011;55787;52.678;13.314;2024-03-07T03:59:02;68.32;;;20.90;;
68803;SDS011;55787;52.678;13.314;2024-03-07T04:01:29;62.40;;;20.00;;
68803;SDS011;55787;52.678;13.314;2024-03-07T04:03:56;67.63;;;19.85;;
68803;SDS011;55787;52.678;13.314;2024-03-07T04:06:23;67.03;;;20.43;;
68803;SDS011;55787;52.678;13.314;2024-03-07T04:08:50;63.67;;;20.30;;
68803;SDS011;55787;52.678;13.314;2024-03-07T04:11:18;63.50;;;19.73;;
68803;SDS011;55787;52.678;13.314;2024-03-07T04:13:45;65.03;;;20.05;;
68803;SDS011;55787;52.678;13.314;2024-03-07T04:16:12;56.50;;;19.05;;
68803;SDS011;55787;52.678;13.314;2024-03-07T04:18:40;58.60;;;18.57;;
68803;SDS011;55787;52.678;13.314;2024-03-07T04:21:07;57.88;;;18.40;;
68803;SDS011;55787;52.678;13.314;2024-03-07T04:23:35;64.65;;;18.38;;
68803;SDS011;55787;52.678;13.314;2024-03-07T04:26:02;59.95;;;19.40;;
68803;SDS011;55787;52.678;13.314;2024-03-07T04:28:29;62.42;;;18.65;;
68803;SDS011;55787;52.678;13.314;2024-03-07T04:30:55;62.10;;;19.20;;
68803;SDS011;55787;52.678;13.314;2024-03-07T04:33:22;58.65;;;18.50;;
68803;SDS011;55787;52.678;13.314;2024-03-07T04:35:49;58.15;;;20.05;;
68803;SDS011;55787;52.678;13.314;2024-03-07T04:38:18;52.08;;;17.98;;
68803;SDS011;55787;52.678;13.314;2024-03-07T04:40:45;57.20;;;18.67;;
68803;SDS011;55787;52.678;13.314;2024-03-07T04:43:12;55.30;;;19.00;;
68803;SDS011;55787;52.678;13.314;2024-03-07T04:45:39;56.97;;;17.58;;
68803;SDS011;55787;52.678;13.314;2024-03-07T04:48:06;56.42;;;18.33;;
68803;SDS011;55787;52.678;13.314;2024-03-07T04:50:35;55.35;;;16.88;;
68803;SDS011;55787;52.678;13.314;2024-03-07T04:53:01;55.20;;;17.65;;
68803;SDS011;55787;52.678;13.314;2024-03-07T04:55:28;59.40;;;18.73;;
68803;SDS011;55787;52.678;13.314;2024-03-07T04:57:55;60.80;;;19.65;;
68803;SDS011;55787;52.678;13.314;2024-03-07T05:00:21;60.63;;;18.40;;
68803;SDS011;55787;52.678;13.314;2024-03-07T05:02:50;58.67;;;19.33;;
68803;SDS011;55787;52.678;13.314;2024-03-07T05:05:18;58.75;;;18.95;;
68803;SDS011;55787;52.678;13.314;2024-03-07T05:07:53;57.37;;;17.90;;
68803;SDS011;55787;52.678;13.314;2024-03-07T05:10:19;59.10;;;18.13;;
68803;SDS011;55787;52.678;13.314;2024-03-07T05:12:47;61.50;;;18.92;;
68803;SDS011;55787;52.678;13.314;2024-03-07T05:15:14;54.47;;;17.60;;
68803;SDS011;55787;52.678;13.314;2024-03-07T05:17:40;62.33;;;18.40;;
68803;SDS011;55787;52.678;13.314;2024-03-07T05:20:10;56.53;;;17.63;;
68803;SDS011;55787;52.678;13.314;2024-03-07T05:22:37;57.53;;;18.17;;
68803;SDS011;55787;52.678;13.314;2024-03-07T05:25:16;61.40;;;19.48;;
68803;SDS011;55787;52.678;13.314;2024-03-07T05:27:45;63.72;;;19.30;;
68803;SDS011;55787;52.678;13.314;2024-03-07T05:30:12;56.72;;;18.88;;
68803;SDS011;55787;52.678;13.314;2024-03-07T05:32:42;58.63;;;19.23;;
68803;SDS011;55787;52.678;13.314;2024-03-07T05:35:09;53.20;;;17.90;;
68803;SDS011;55787;52.678;13.314;2024-03-07T05:37:37;57.42;;;18.38;;
68803;SDS011;55787;52.678;13.314;2024-03-07T05:40:07;63.10;;;18.48;;
68803;SDS011;55787;52.678;13.314;2024-03-07T05:42:35;63.33;;;19.45;;
68803;SDS011;55787;52.678;13.314;2024-03-07T05:45:01;60.00;;;19.23;;
68803;SDS011;55787;52.678;13.314;2024-03-07T05:47:28;64.45;;;19.33;;
68803;SDS011;55787;52.678;13.314;2024-03-07T05:49:55;69.05;;;18.80;;
68803;SDS011;55787;52.678;13.314;2024-03-07T05:52:22;62.92;;;18.25;;
68803;SDS011;55787;52.678;13.314;2024-03-07T05:54:48;64.43;;;19.15;;
68803;SDS011;55787;52.678;13.314;2024-03-07T05:57:15;59.17;;;18.77;;
68803;SDS011;55787;52.678;13.314;2024-03-07T05:59:41;60.55;;;18.73;;
68803;SDS011;55787;52.678;13.314;2024-03-07T06:02:08;58.88;;;18.88;;
68803;SDS011;55787;52.678;13.314;2024-03-07T06:04:34;63.78;;;18.75;;
68803;SDS011;55787;52.678;13.314;2024-03-07T06:07:01;69.47;;;17.92;;
68803;SDS011;55787;52.678;13.314;2024-03-07T06:09:28;67.40;;;19.00;;
68803;SDS011;55787;52.678;13.314;2024-03-07T06:11:54;60.22;;;18.40;;
68803;SDS011;55787;52.678;13.314;2024-03-07T06:14:21;67.72;;;19.33;;
68803;SDS011;55787;52.678;13.314;2024-03-07T06:16:49;63.08;;;19.27;;
68803;SDS011;55787;52.678;13.314;2024-03-07T06:19:18;60.28;;;18.38;;
68803;SDS011;55787;52.678;13.314;2024-03-07T06:21:45;63.57;;;19.83;;
68803;SDS011;55787;52.678;13.314;2024-03-07T06:24:12;61.50;;;18.50;;
68803;SDS011;55787;52.678;13.314;2024-03-07T06:26:41;70.22;;;20.85;;
68803;SDS011;55787;52.678;13.314;2024-03-07T06:29:12;66.30;;;19.45;;
68803;SDS011;55787;52.678;13.314;2024-03-07T06:31:43;67.78;;;19.20;;
68803;SDS011;55787;52.678;13.314;2024-03-07T06:34:14;62.60;;;18.97;;
68803;SDS011;55787;52.678;13.314;2024-03-07T06:36:41;63.33;;;19.02;;
68803;SDS011;55787;52.678;13.314;2024-03-07T06:39:07;67.90;;;19.73;;
68803;SDS011;55787;52.678;13.314;2024-03-07T06:41:37;66.20;;;19.77;;
68803;SDS011;55787;52.678;13.314;2024-03-07T06:44:04;64.05;;;19.20;;
68803;SDS011;55787;52.678;13.314;2024-03-07T06:46:31;56.87;;;18.50;;
68803;SDS011;55787;52.678;13.314;2024-03-07T06:49:00;55.70;;;18.42;;
68803;SDS011;55787;52.678;13.314;2024-03-07T06:51:27;60.60;;;19.33;;
68803;SDS011;55787;52.678;13.314;2024-03-07T06:53:54;54.90;;;18.35;;
68803;SDS011;55787;52.678;13.314;2024-03-07T06:56:22;55.83;;;18.23;;
68803;SDS011;55787;52.678;13.314;2024-03-07T06:58:50;58.77;;;18.50;;
68803;SDS011;55787;52.678;13.314;2024-03-07T07:01:16;53.58;;;18.25;;
68803;SDS011;55787;52.678;13.314;2024-03-07T07:03:44;52.08;;;17.25;;
68803;SDS011;55787;52.678;13.314;2024-03-07T07:06:12;51.53;;;17.17;;
68803;SDS011;55787;52.678;13.314;2024-03-07T07:08:38;49.88;;;16.80;;
68803;SDS011;55787;52.678;13.314;2024-03-07T07:11:05;51.17;;;16.80;;
68803;SDS011;55787;52.678;13.314;2024-03-07T07:13:32;45.67;;;16.63;;
68803;SDS011;55787;52.678;13.314;2024-03-07T07:15:59;49.22;;;16.23;;
68803;SDS011;55787;52.678;13.314;2024-03-07T07:18:27;49.40;;;16.65;;
68803;SDS011;55787;52.678;13.314;2024-03-07T07:20:54;45.80;;;15.38;;
68803;SDS011;55787;52.678;13.314;2024-03-07T07:23:22;44.30;;;14.70;;
68803;SDS011;55787;52.678;13.314;2024-03-07T07:25:49;40.80;;;15.25;;
68803;SDS011;55787;52.678;13.314;2024-03-07T07:28:16;39.90;;;14.40;;
68803;SDS011;55787;52.678;13.314;2024-03-07T07:30:43;40.47;;;15.25;;
68803;SDS011;55787;52.678;13.314;2024-03-07T07:33:11;42.83;;;14.77;;
68803;SDS011;55787;52.678;13.314;2024-03-07T07:35:40;36.57;;;14.13;;
68803;SDS011;55787;52.678;13.314;2024-03-07T07:38:07;36.22;;;13.82;;
68803;SDS011;55787;52.678;13.314;2024-03-07T07:40:37;34.25;;;13.82;;
68803;SDS011;55787;52.678;13.314;2024-03-07T07:43:03;37.58;;;14.35;;
68803;SDS011;55787;52.678;13.314;2024-03-07T07:45:30;37.40;;;13.60;;
68803;SDS011;55787;52.678;13.314;2024-03-07T07:47:59;39.73;;;14.23;;
68803;SDS011;55787;52.678;13.314;2024-03-07T07:50:26;35.58;;;12.70;;
68803;SDS011;55787;52.678;13.314;2024-03-07T07:52:53;38.53;;;13.45;;
68803;SDS011;55787;52.678;13.314;2024-03-07T07:55:24;40.28;;;13.13;;
68803;SDS011;55787;52.678;13.314;2024-03-07T07:57:53;32.88;;;12.65;;
68803;SDS011;55787;52.678;13.314;2024-03-07T08:00:22;33.88;;;12.77;;
68803;SDS011;55787;52.678;13.314;2024-03-07T08:05:28;26.83;;;10.52;;
68803;SDS011;55787;52.678;13.314;2024-03-07T08:07:58;27.38;;;10.95;;
68803;SDS011;55787;52.678;13.314;2024-03-07T08:10:27;26.45;;;11.27;;
68803;SDS011;55787;52.678;13.314;2024-03-07T08:12:58;27.57;;;11.00;;
68803;SDS011;55787;52.678;13.314;2024-03-07T08:15:26;27.33;;;11.05;;
68803;SDS011;55787;52.678;13.314;2024-03-07T08:17:56;26.55;;;10.32;;
68803;SDS011;55787;52.678;13.314;2024-03-07T08:20:25;29.65;;;10.60;;
68803;SDS011;55787;52.678;13.314;2024-03-07T08:22:53;27.95;;;10.13;;
68803;SDS011;55787;52.678;13.314;2024-03-07T08:25:25;25.13;;;9.73;;
68803;SDS011;55787;52.678;13.314;2024-03-07T08:27:53;28.00;;;10.50;;
68803;SDS011;55787;52.678;13.314;2024-03-07T08:30:21;25.75;;;10.55;;
68803;SDS011;55787;52.678;13.314;2024-03-07T08:32:50;26.50;;;9.95;;
68803;SDS011;55787;52.678;13.314;2024-03-07T08:35:19;25.63;;;9.40;;
68803;SDS011;55787;52.678;13.314;2024-03-07T08:37:47;23.53;;;9.47;;
68803;SDS011;55787;52.678;13.314;2024-03-07T08:40:22;24.55;;;8.93;;
68803;SDS011;55787;52.678;13.314;2024-03-07T08:42:54;22.10;;;8.40;;
68803;SDS011;55787;52.678;13.314;2024-03-07T08:45:22;20.75;;;7.90;;
68803;SDS011;55787;52.678;13.314;2024-03-07T08:47:50;23.42;;;9.32;;
68803;SDS011;55787;52.678;13.314;2024-03-07T08:50:17;20.90;;;7.90;;
68803;SDS011;55787;52.678;13.314;2024-03-07T08:52:45;19.50;;;8.60;;
68803;SDS011;55787;52.678;13.314;2024-03-07T08:55:12;19.33;;;8.15;;
68803;SDS011;55787;52.678;13.314;2024-03-07T08:57:41;20.42;;;8.15;;
68803;SDS011;55787;52.678;13.314;2024-03-07T09:00:10;17.98;;;8.77;;
68803;SDS011;55787;52.678;13.314;2024-03-07T09:02:50;20.98;;;8.07;;
68803;SDS011;55787;52.678;13.314;2024-03-07T09:05:20;17.50;;;7.93;;
68803;SDS011;55787;52.678;13.314;2024-03-07T09:07:51;16.63;;;7.20;;
68803;SDS011;55787;52.678;13.314;2024-03-07T09:10:19;18.05;;;7.13;;
68803;SDS011;55787;52.678;13.314;2024-03-07T09:12:47;18.50;;;8.68;;
68803;SDS011;55787;52.678;13.314;2024-03-07T09:15:18;16.63;;;7.45;;
68803;SDS011;55787;52.678;13.314;2024-03-07T09:17:48;17.17;;;7.88;;
68803;SDS011;55787;52.678;13.314;2024-03-07T09:20:15;19.30;;;7.32;;
68803;SDS011;55787;52.678;13.314;2024-03-07T09:22:42;16.80;;;7.00;;
68803;SDS011;55787;52.678;13.314;2024-03-07T09:25:09;18.08;;;8.07;;
68803;SDS011;55787;52.678;13.314;2024-03-07T09:27:37;21.10;;;8.20;;
68803;SDS011;55787;52.678;13.314;2024-03-07T09:30:04;18.92;;;8.50;;
68803;SDS011;55787;52.678;13.314;2024-03-07T09:32:31;20.23;;;9.05;;
68803;SDS011;55787;52.678;13.314;2024-03-07T09:35:00;18.95;;;8.90;;
68803;SDS011;55787;52.678;13.314;2024-03-07T09:37:27;18.52;;;8.65;;
68803;SDS011;55787;52.678;13.314;2024-03-07T09:39:54;18.35;;;8.68;;
68803;SDS011;55787;52.678;13.314;2024-03-07T09:42:20;17.27;;;8.20;;
68803;SDS011;55787;52.678;13.314;2024-03-07T09:44:48;16.55;;;8.13;;
68803;SDS011;55787;52.678;13.314;2024-03-07T09:47:17;19.02;;;8.38;;
68803;SDS011;55787;52.678;13.314;2024-03-07T09:49:44;17.85;;;8.38;;
68803;SDS011;55787;52.678;13.314;2024-03-07T09:52:11;18.30;;;8.55;;
68803;SDS011;55787;52.678;13.314;2024-03-07T09:54:40;16.00;;;7.72;;
68803;SDS011;55787;52.678;13.314;2024-03-07T09:57:07;15.98;;;8.55;;
68803;SDS011;55787;52.678;13.314;2024-03-07T09:59:37;19.70;;;8.18;;
68803;SDS011;55787;52.678;13.314;2024-03-07T10:02:07;18.63;;;8.02;;
68803;SDS011;55787;52.678;13.314;2024-03-07T10:04:48;15.70;;;8.60;;
68803;SDS011;55787;52.678;13.314;2024-03-07T10:07:15;16.02;;;8.00;;
68803;SDS011;55787;52.678;13.314;2024-03-07T10:09:42;15.98;;;8.00;;
68803;SDS011;55787;52.678;13.314;2024-03-07T10:12:09;15.63;;;8.07;;
68803;SDS011;55787;52.678;13.314;2024-03-07T10:14:38;15.98;;;7.47;;
68803;SDS011;55787;52.678;13.314;2024-03-07T10:17:13;15.60;;;7.35;;
68803;SDS011;55787;52.678;13.314;2024-03-07T10:19:40;16.17;;;8.20;;
68803;SDS011;55787;52.678;13.314;2024-03-07T10:22:07;17.40;;;8.35;;
68803;SDS011;55787;52.678;13.314;2024-03-07T10:24:34;15.90;;;7.75;;
68803;SDS011;55787;52.678;13.314;2024-03-07T10:27:00;14.45;;;7.20;;
68803;SDS011;55787;52.678;13.314;2024-03-07T10:29:27;16.08;;;6.95;;
68803;SDS011;55787;52.678;13.314;2024-03-07T10:31:55;16.42;;;8.13;;
68803;SDS011;55787;52.678;13.314;2024-03-07T10:34:33;16.23;;;8.48;;
68803;SDS011;55787;52.678;13.314;2024-03-07T10:37:00;15.18;;;7.90;;
68803;SDS011;55787;52.678;13.314;2024-03-07T10:39:30;16.42;;;8.23;;
68803;SDS011;55787;52.678;13.314;2024-03-07T10:41:57;18.02;;;8.20;;
68803;SDS011;55787;52.678;13.314;2024-03-07T10:44:31;18.80;;;8.48;;
68803;SDS011;55787;52.678;13.314;2024-03-07T10:47:04;17.10;;;7.95;;
68803;SDS011;55787;52.678;13.314;2024-03-07T10:49:34;18.30;;;8.98;;
68803;SDS011;55787;52.678;13.314;2024-03-07T10:52:07;17.60;;;8.00;;
68803;SDS011;55787;52.678;13.314;2024-03-07T10:54:48;19.15;;;8.80;;
68803;SDS011;55787;52.678;13.314;2024-03-07T10:57:49;18.38;;;8.15;;
68803;SDS011;55787;52.678;13.314;2024-03-07T11:00:21;18.25;;;8.60;;
68803;SDS011;55787;52.678;13.314;2024-03-07T11:03:02;18.05;;;8.15;;
68803;SDS011;55787;52.678;13.314;2024-03-07T11:05:35;17.38;;;7.60;;
68803;SDS011;55787;52.678;13.314;2024-03-07T11:08:02;16.10;;;7.07;;
68803;SDS011;55787;52.678;13.314;2024-03-07T11:10:38;18.15;;;7.10;;
68803;SDS011;55787;52.678;13.314;2024-03-07T11:13:08;16.23;;;7.25;;
68803;SDS011;55787;52.678;13.314;2024-03-07T11:15:39;16.08;;;7.07;;
68803;SDS011;55787;52.678;13.314;2024-03-07T11:18:08;15.15;;;6.22;;
68803;SDS011;55787;52.678;13.314;2024-03-07T11:20:37;17.85;;;7.30;;
68803;SDS011;55787;52.678;13.314;2024-03-07T11:26:07;16.58;;;6.78;;
68803;SDS011;55787;52.678;13.314;2024-03-07T11:28:36;18.27;;;7.78;;
68803;SDS011;55787;52.678;13.314;2024-03-07T11:31:08;16.35;;;7.47;;
68803;SDS011;55787;52.678;13.314;2024-03-07T11:34:13;17.58;;;7.95;;
68803;SDS011;55787;52.678;13.314;2024-03-07T11:36:46;16.88;;;7.63;;
68803;SDS011;55787;52.678;13.314;2024-03-07T11:42:33;18.25;;;7.22;;
68803;SDS011;55787;52.678;13.314;2024-03-07T11:45:02;15.15;;;7.63;;
68803;SDS011;55787;52.678;13.314;2024-03-07T11:47:35;16.65;;;8.00;;
68803;SDS011;55787;52.678;13.314;2024-03-07T11:50:05;16.08;;;8.02;;
68803;SDS011;55787;52.678;13.314;2024-03-07T11:52:38;15.15;;;7.47;;
68803;SDS011;55787;52.678;13.314;2024-03-07T11:55:08;16.95;;;7.68;;
68803;SDS011;55787;52.678;13.314;2024-03-07T11:57:35;16.58;;;8.15;;
68803;SDS011;55787;52.678;13.314;2024-03-07T12:00:02;15.70;;;7.80;;
68803;SDS011;55787;52.678;13.314;2024-03-07T12:02:38;15.82;;;7.75;;
68803;SDS011;55787;52.678;13.314;2024-03-07T12:05:07;15.85;;;8.30;;
68803;SDS011;55787;52.678;13.314;2024-03-07T12:07:34;16.65;;;8.32;;
68803;SDS011;55787;52.678;13.314;2024-03-07T12:10:01;15.98;;;8.48;;
68803;SDS011;55787;52.678;13.314;2024-03-07T12:12:33;14.95;;;7.70;;
68803;SDS011;55787;52.678;13.314;2024-03-07T12:15:00;15.70;;;7.60;;
68803;SDS011;55787;52.678;13.314;2024-03-07T12:17:29;15.90;;;8.13;;
68803;SDS011;55787;52.678;13.314;2024-03-07T12:19:58;17.38;;;7.75;;
68803;SDS011;55787;52.678;13.314;2024-03-07T12:22:29;16.27;;;7.95;;
68803;SDS011;55787;52.678;13.314;2024-03-07T12:25:00;16.55;;;7.80;;
68803;SDS011;55787;52.678;13.314;2024-03-07T12:27:28;17.13;;;8.55;;
68803;SDS011;55787;52.678;13.314;2024-03-07T12:29:58;16.27;;;8.65;;
68803;SDS011;55787;52.678;13.314;2024-03-07T12:32:28;14.30;;;7.60;;
68803;SDS011;55787;52.678;13.314;2024-03-07T12:34:55;16.17;;;8.20;;
68803;SDS011;55787;52.678;13.314;2024-03-07T12:37:22;16.42;;;7.70;;
68803;SDS011;55787;52.678;13.314;2024-03-07T12:39:53;15.57;;;7.68;;
68803;SDS011;55787;52.678;13.314;2024-03-07T12:42:28;17.02;;;8.25;;
68803;SDS011;55787;52.678;13.314;2024-03-07T12:44:57;17.95;;;8.75;;
68803;SDS011;55787;52.678;13.314;2024-03-07T12:47:26;16.63;;;8.35;;
68803;SDS011;55787;52.678;13.314;2024-03-07T12:49:53;14.45;;;7.55;;
68803;SDS011;55787;52.678;13.314;2024-03-07T12:52:19;18.75;;;7.88;;
68803;SDS011;55787;52.678;13.314;2024-03-07T12:54:46;15.38;;;8.10;;
68803;SDS011;55787;52.678;13.314;2024-03-07T12:57:14;14.52;;;7.63;;
68803;SDS011;55787;52.678;13.314;2024-03-07T12:59:41;14.73;;;7.28;;
68803;SDS011;55787;52.678;13.314;2024-03-07T13:02:08;15.52;;;7.57;;
68803;SDS011;55787;52.678;13.314;2024-03-07T13:04:36;15.25;;;7.38;;
68803;SDS011;55787;52.678;13.314;2024-03-07T13:07:07;17.85;;;7.82;;
68803;SDS011;55787;52.678;13.314;2024-03-07T13:09:33;15.93;;;7.50;;
68803;SDS011;55787;52.678;13.314;2024-03-07T13:12:00;16.30;;;7.22;;
68803;SDS011;55787;52.678;13.314;2024-03-07T13:14:27;14.75;;;7.43;;
68803;SDS011;55787;52.678;13.314;2024-03-07T13:16:59;14.43;;;6.45;;
68803;SDS011;55787;52.678;13.314;2024-03-07T13:19:27;14.90;;;7.38;;
68803;SDS011;55787;52.678;13.314;2024-03-07T13:21:53;14.75;;;7.32;;
68803;SDS011;55787;52.678;13.314;2024-03-07T13:24:21;16.60;;;7.25;;
68803;SDS011;55787;52.678;13.314;2024-03-07T13:26:52;16.58;;;8.23;;
68803;SDS011;55787;52.678;13.314;2024-03-07T13:29:19;16.90;;;8.32;;
68803;SDS011;55787;52.678;13.314;2024-03-07T13:31:51;14.60;;;7.00;;
68803;SDS011;55787;52.678;13.314;2024-03-07T13:34:18;16.70;;;7.97;;
68803;SDS011;55787;52.678;13.314;2024-03-07T13:36:45;15.65;;;7.10;;
68803;SDS011;55787;52.678;13.314;2024-03-07T13:39:12;16.17;;;7.53;;
68803;SDS011;55787;52.678;13.314;2024-03-07T13:41:41;17.05;;;7.97;;
68803;SDS011;55787;52.678;13.314;2024-03-07T13:44:08;16.85;;;7.20;;
68803;SDS011;55787;52.678;13.314;2024-03-07T13:46:35;15.75;;;7.18;;
68803;SDS011;55787;52.678;13.314;2024-03-07T13:49:02;17.52;;;7.45;;
68803;SDS011;55787;52.678;13.314;2024-03-07T13:51:43;15.40;;;7.05;;
68803;SDS011;55787;52.678;13.314;2024-03-07T13:54:17;15.25;;;7.22;;
68803;SDS011;55787;52.678;13.314;2024-03-07T13:57:35;16.17;;;7.70;;
68803;SDS011;55787;52.678;13.314;2024-03-07T14:30:52;17.05;;;7.82;;
68803;SDS011;55787;52.678;13.314;2024-03-07T14:33:25;16.42;;;7.55;;
68803;SDS011;55787;52.678;13.314;2024-03-07T14:38:49;15.82;;;7.43;;
68803;SDS011;55787;52.678;13.314;2024-03-07T14:41:42;16.85;;;8.07;;
68803;SDS011;55787;52.678;13.314;2024-03-07T14:44:14;15.75;;;7.68;;
68803;SDS011;55787;52.678;13.314;2024-03-07T14:46:42;15.55;;;7.78;;
68803;SDS011;55787;52.678;13.314;2024-03-07T14:49:12;17.70;;;8.13;;
68803;SDS011;55787;52.678;13.314;2024-03-07T14:51:42;17.65;;;7.85;;
68803;SDS011;55787;52.678;13.314;2024-03-07T14:54:24;19.05;;;7.90;;
68803;SDS011;55787;52.678;13.314;2024-03-07T14:56:50;18.35;;;8.45;;
68803;SDS011;55787;52.678;13.314;2024-03-07T14:59:18;18.27;;;8.65;;
68803;SDS011;55787;52.678;13.314;2024-03-07T15:01:47;16.95;;;8.05;;
68803;SDS011;55787;52.678;13.314;2024-03-07T15:04:14;15.38;;;7.28;;